sensor_id;sensor_type;location;lat;lon;timestamp;pressure;altitude;pressure_sealevel;temperature
11792;BMP180;5953;52.372;9.918;2024-02-04T00:01:32;101187.00;;;13.80
11792;BMP180;5953;52.372;9.918;2024-02-04T00:04:00;101173.00;;;13.90
11792;BMP180;5953;52.372;9.918;2024-02-04T00:06:28;101185.00;;;14.00
11792;BMP180;5953;52.372;9.918;2024-02-04T00:08:56;101179.00;;;14.10
11792;BMP180;5953;52.372;9.918;2024-02-04T00:11:24;101181.00;;;14.00
11792;BMP180;5953;52.372;9.918;2024-02-04T00:13:53;101179.00;;;13.80
11792;BMP180;5953;52.372;9.918;2024-02-04T00:16:21;101180.00;;;13.70
11792;BMP180;5953;52.372;9.918;2024-02-04T00:18:49;101165.00;;;13.60
11792;BMP180;5953;52.372;9.918;2024-02-04T00:21:16;101166.00;;;13.70
11792;BMP180;5953;52.372;9.918;2024-02-04T00:23:44;101159.00;;;13.70
11792;BMP180;5953;52.372;9.918;2024-02-04T00:26:12;101174.00;;;13.40
11792;BMP180;5953;52.372;9.918;2024-02-04T00:28:40;101165.00;;;13.60
11792;BMP180;5953;52.372;9.918;2024-02-04T00:31:11;101171.00;;;13.70
11792;BMP180;5953;52.372;9.918;2024-02-04T00:33:38;101172.00;;;13.50
11792;BMP180;5953;52.372;9.918;2024-02-04T00:36:07;101160.00;;;13.60
11792;BMP180;5953;52.372;9.918;2024-02-04T00:38:35;101155.00;;;13.70
11792;BMP180;5953;52.372;9.918;2024-02-04T00:41:02;101153.00;;;13.50
11792;BMP180;5953;52.372;9.918;2024-02-04T00:43:32;101150.00;;;13.40
11792;BMP180;5953;52.372;9.918;2024-02-04T00:45:59;101138.00;;;13.30
11792;BMP180;5953;52.372;9.918;2024-02-04T00:48:29;101128.00;;;13.40
11792;BMP180;5953;52.372;9.918;2024-02-04T00:50:57;101136.00;;;13.60
11792;BMP180;5953;52.372;9.918;2024-02-04T00:53:24;101123.00;;;13.60
11792;BMP180;5953;52.372;9.918;2024-02-04T00:55:54;101121.00;;;13.30
11792;BMP180;5953;52.372;9.918;2024-02-04T00:58:22;101120.00;;;13.60
11792;BMP180;5953;52.372;9.918;2024-02-04T01:00:49;101126.00;;;13.50
11792;BMP180;5953;52.372;9.918;2024-02-04T01:03:17;101121.00;;;13.50
11792;BMP180;5953;52.372;9.918;2024-02-04T01:05:47;101129.00;;;13.40
11792;BMP180;5953;52.372;9.918;2024-02-04T01:08:14;101136.00;;;13.60
11792;BMP180;5953;52.372;9.918;2024-02-04T01:10:42;101127.00;;;13.60
11792;BMP180;5953;52.372;9.918;2024-02-04T01:13:10;101135.00;;;13.30
11792;BMP180;5953;52.372;9.918;2024-02-04T01:15:38;101126.00;;;13.50
11792;BMP180;5953;52.372;9.918;2024-02-04T01:18:06;101131.00;;;13.60
11792;BMP180;5953;52.372;9.918;2024-02-04T01:20:33;101126.00;;;13.50
11792;BMP180;5953;52.372;9.918;2024-02-04T01:23:03;101126.00;;;13.50
11792;BMP180;5953;52.372;9.918;2024-02-04T01:25:30;101126.00;;;13.50
11792;BMP180;5953;52.372;9.918;2024-02-04T01:27:58;101133.00;;;13.40
11792;BMP180;5953;52.372;9.918;2024-02-04T01:30:26;101132.00;;;13.30
11792;BMP180;5953;52.372;9.918;2024-02-04T01:32:57;101128.00;;;13.20
11792;BMP180;5953;52.372;9.918;2024-02-04T01:35:24;101124.00;;;13.30
11792;BMP180;5953;52.372;9.918;2024-02-04T01:37:52;101139.00;;;12.90
11792;BMP180;5953;52.372;9.918;2024-02-04T01:40:21;101143.00;;;13.10
11792;BMP180;5953;52.372;9.918;2024-02-04T01:42:49;101147.00;;;13.10
11792;BMP180;5953;52.372;9.918;2024-02-04T01:45:17;101139.00;;;13.00
11792;BMP180;5953;52.372;9.918;2024-02-04T01:47:45;101137.00;;;13.20
11792;BMP180;5953;52.372;9.918;2024-02-04T01:50:13;101142.00;;;13.10
11792;BMP180;5953;52.372;9.918;2024-02-04T01:52:42;101133.00;;;13.20
11792;BMP180;5953;52.372;9.918;2024-02-04T01:55:11;101127.00;;;13.30
11792;BMP180;5953;52.372;9.918;2024-02-04T01:57:41;101124.00;;;13.20
11792;BMP180;5953;52.372;9.918;2024-02-04T02:00:09;101137.00;;;13.10
11792;BMP180;5953;52.372;9.918;2024-02-04T02:02:40;101154.00;;;13.10
11792;BMP180;5953;52.372;9.918;2024-02-04T02:05:08;101134.00;;;13.10
11792;BMP180;5953;52.372;9.918;2024-02-04T02:07:36;101127.00;;;13.30
11792;BMP180;5953;52.372;9.918;2024-02-04T02:10:05;101119.00;;;13.30
11792;BMP180;5953;52.372;9.918;2024-02-04T02:12:40;101116.00;;;13.20
11792;BMP180;5953;52.372;9.918;2024-02-04T02:15:14;101122.00;;;13.30
11792;BMP180;5953;52.372;9.918;2024-02-04T02:17:47;101120.00;;;13.30
11792;BMP180;5953;52.372;9.918;2024-02-04T02:20:20;101108.00;;;13.00
11792;BMP180;5953;52.372;9.918;2024-02-04T02:22:49;101086.00;;;13.40
11792;BMP180;5953;52.372;9.918;2024-02-04T02:25:20;101077.00;;;13.50
11792;BMP180;5953;52.372;9.918;2024-02-04T02:27:49;101083.00;;;13.50
11792;BMP180;5953;52.372;9.918;2024-02-04T02:30:18;101076.00;;;13.60
11792;BMP180;5953;52.372;9.918;2024-02-04T02:32:48;101082.00;;;13.50
11792;BMP180;5953;52.372;9.918;2024-02-04T02:35:17;101079.00;;;13.40
11792;BMP180;5953;52.372;9.918;2024-02-04T02:37:48;101092.00;;;13.30
11792;BMP180;5953;52.372;9.918;2024-02-04T02:40:23;101087.00;;;13.40
11792;BMP180;5953;52.372;9.918;2024-02-04T02:42:54;101081.00;;;13.40
11792;BMP180;5953;52.372;9.918;2024-02-04T02:45:22;101086.00;;;13.50
11792;BMP180;5953;52.372;9.918;2024-02-04T02:47:52;101081.00;;;13.40
11792;BMP180;5953;52.372;9.918;2024-02-04T02:50:21;101071.00;;;13.40
11792;BMP180;5953;52.372;9.918;2024-02-04T02:52:49;101072.00;;;13.40
11792;BMP180;5953;52.372;9.918;2024-02-04T02:55:17;101068.00;;;13.60
11792;BMP180;5953;52.372;9.918;2024-02-04T02:57:46;101073.00;;;13.50
11792;BMP180;5953;52.372;9.918;2024-02-04T03:00:14;101064.00;;;13.50
11792;BMP180;5953;52.372;9.918;2024-02-04T03:02:42;101071.00;;;13.30
11792;BMP180;5953;52.372;9.918;2024-02-04T03:05:12;101070.00;;;13.40
11792;BMP180;5953;52.372;9.918;2024-02-04T03:07:40;101072.00;;;13.50
11792;BMP180;5953;52.372;9.918;2024-02-04T03:10:08;101070.00;;;13.30
11792;BMP180;5953;52.372;9.918;2024-02-04T03:12:36;101074.00;;;13.60
11792;BMP180;5953;52.372;9.918;2024-02-04T03:15:07;101054.00;;;13.50
11792;BMP180;5953;52.372;9.918;2024-02-04T03:17:34;101054.00;;;13.60
11792;BMP180;5953;52.372;9.918;2024-02-04T03:20:03;101046.00;;;13.70
11792;BMP180;5953;52.372;9.918;2024-02-04T03:22:31;101051.00;;;13.70
11792;BMP180;5953;52.372;9.918;2024-02-04T03:24:59;101052.00;;;13.70
11792;BMP180;5953;52.372;9.918;2024-02-04T03:27:27;101045.00;;;13.70
11792;BMP180;5953;52.372;9.918;2024-02-04T03:29:54;101049.00;;;13.70
11792;BMP180;5953;52.372;9.918;2024-02-04T03:32:23;101043.00;;;13.90
11792;BMP180;5953;52.372;9.918;2024-02-04T03:34:51;101052.00;;;13.50
11792;BMP180;5953;52.372;9.918;2024-02-04T03:37:19;101038.00;;;13.50
11792;BMP180;5953;52.372;9.918;2024-02-04T03:39:47;101036.00;;;13.80
11792;BMP180;5953;52.372;9.918;2024-02-04T03:42:14;101043.00;;;13.70
11792;BMP180;5953;52.372;9.918;2024-02-04T03:44:46;101046.00;;;13.70
11792;BMP180;5953;52.372;9.918;2024-02-04T03:47:14;101048.00;;;13.70
11792;BMP180;5953;52.372;9.918;2024-02-04T03:49:43;101053.00;;;13.30
11792;BMP180;5953;52.372;9.918;2024-02-04T03:52:11;101050.00;;;13.60
11792;BMP180;5953;52.372;9.918;2024-02-04T03:54:38;101049.00;;;13.70
11792;BMP180;5953;52.372;9.918;2024-02-04T03:57:06;101048.00;;;13.70
11792;BMP180;5953;52.372;9.918;2024-02-04T03:59:34;101060.00;;;13.50
11792;BMP180;5953;52.372;9.918;2024-02-04T04:02:02;101039.00;;;13.50
11792;BMP180;5953;52.372;9.918;2024-02-04T04:04:30;101033.00;;;13.30
11792;BMP180;5953;52.372;9.918;2024-02-04T04:06:59;101039.00;;;13.50
11792;BMP180;5953;52.372;9.918;2024-02-04T04:09:27;101027.00;;;13.20
11792;BMP180;5953;52.372;9.918;2024-02-04T04:11:55;101030.00;;;13.50
11792;BMP180;5953;52.372;9.918;2024-02-04T04:14:23;101024.00;;;13.30
11792;BMP180;5953;52.372;9.918;2024-02-04T04:16:50;101039.00;;;13.30
11792;BMP180;5953;52.372;9.918;2024-02-04T04:19:18;101041.00;;;13.40
11792;BMP180;5953;52.372;9.918;2024-02-04T04:21:46;101028.00;;;13.50
11792;BMP180;5953;52.372;9.918;2024-02-04T04:24:15;101021.00;;;13.50
11792;BMP180;5953;52.372;9.918;2024-02-04T04:26:46;101018.00;;;13.70
11792;BMP180;5953;52.372;9.918;2024-02-04T04:29:13;101013.00;;;13.20
11792;BMP180;5953;52.372;9.918;2024-02-04T04:31:41;101026.00;;;13.10
11792;BMP180;5953;52.372;9.918;2024-02-04T04:34:09;101036.00;;;13.40
11792;BMP180;5953;52.372;9.918;2024-02-04T04:36:37;101032.00;;;13.50
11792;BMP180;5953;52.372;9.918;2024-02-04T04:39:05;101030.00;;;13.40
11792;BMP180;5953;52.372;9.918;2024-02-04T04:41:34;101038.00;;;13.50
11792;BMP180;5953;52.372;9.918;2024-02-04T04:44:03;101036.00;;;13.30
11792;BMP180;5953;52.372;9.918;2024-02-04T04:46:31;101019.00;;;13.30
11792;BMP180;5953;52.372;9.918;2024-02-04T04:48:59;101030.00;;;13.30
11792;BMP180;5953;52.372;9.918;2024-02-04T04:51:26;101037.00;;;13.40
11792;BMP180;5953;52.372;9.918;2024-02-04T04:53:55;101048.00;;;13.40
11792;BMP180;5953;52.372;9.918;2024-02-04T04:56:22;101063.00;;;13.30
11792;BMP180;5953;52.372;9.918;2024-02-04T04:58:51;101061.00;;;13.30
11792;BMP180;5953;52.372;9.918;2024-02-04T05:01:19;101051.00;;;13.10
11792;BMP180;5953;52.372;9.918;2024-02-04T05:03:47;101043.00;;;13.30
11792;BMP180;5953;52.372;9.918;2024-02-04T05:06:15;101045.00;;;13.30
11792;BMP180;5953;52.372;9.918;2024-02-04T05:08:43;101034.00;;;13.20
11792;BMP180;5953;52.372;9.918;2024-02-04T05:11:11;101045.00;;;13.10
11792;BMP180;5953;52.372;9.918;2024-02-04T05:13:38;101041.00;;;13.30
11792;BMP180;5953;52.372;9.918;2024-02-04T05:16:08;101017.00;;;13.30
11792;BMP180;5953;52.372;9.918;2024-02-04T05:18:36;101032.00;;;13.10
11792;BMP180;5953;52.372;9.918;2024-02-04T05:21:04;101022.00;;;13.30
11792;BMP180;5953;52.372;9.918;2024-02-04T05:23:32;101034.00;;;13.30
11792;BMP180;5953;52.372;9.918;2024-02-04T05:26:02;101046.00;;;13.30
11792;BMP180;5953;52.372;9.918;2024-02-04T05:28:30;101053.00;;;13.20
11792;BMP180;5953;52.372;9.918;2024-02-04T05:30:58;101055.00;;;13.20
11792;BMP180;5953;52.372;9.918;2024-02-04T05:33:27;101036.00;;;12.80
11792;BMP180;5953;52.372;9.918;2024-02-04T05:35:55;101029.00;;;12.90
11792;BMP180;5953;52.372;9.918;2024-02-04T05:38:23;101030.00;;;13.00
11792;BMP180;5953;52.372;9.918;2024-02-04T05:40:51;101026.00;;;13.10
11792;BMP180;5953;52.372;9.918;2024-02-04T05:43:18;101029.00;;;13.30
11792;BMP180;5953;52.372;9.918;2024-02-04T05:45:46;101040.00;;;13.30
11792;BMP180;5953;52.372;9.918;2024-02-04T05:48:14;101020.00;;;13.40
11792;BMP180;5953;52.372;9.918;2024-02-04T05:50:43;101026.00;;;13.40
11792;BMP180;5953;52.372;9.918;2024-02-04T05:53:11;101019.00;;;13.40
11792;BMP180;5953;52.372;9.918;2024-02-04T05:55:39;101014.00;;;13.50
11792;BMP180;5953;52.372;9.918;2024-02-04T05:58:07;101018.00;;;13.30
11792;BMP180;5953;52.372;9.918;2024-02-04T06:00:35;101009.00;;;13.20
11792;BMP180;5953;52.372;9.918;2024-02-04T06:03:03;101014.00;;;13.40
11792;BMP180;5953;52.372;9.918;2024-02-04T06:05:31;101014.00;;;13.10
11792;BMP180;5953;52.372;9.918;2024-02-04T06:08:00;101013.00;;;13.10
11792;BMP180;5953;52.372;9.918;2024-02-04T06:10:28;100992.00;;;13.10
11792;BMP180;5953;52.372;9.918;2024-02-04T06:12:55;101004.00;;;13.00
11792;BMP180;5953;52.372;9.918;2024-02-04T06:15:23;100997.00;;;13.00
11792;BMP180;5953;52.372;9.918;2024-02-04T06:17:51;100988.00;;;13.10
11792;BMP180;5953;52.372;9.918;2024-02-04T06:20:19;100994.00;;;13.00
11792;BMP180;5953;52.372;9.918;2024-02-04T06:22:47;100991.00;;;13.10
11792;BMP180;5953;52.372;9.918;2024-02-04T06:25:16;100988.00;;;13.00
11792;BMP180;5953;52.372;9.918;2024-02-04T06:27:44;100988.00;;;12.90
11792;BMP180;5953;52.372;9.918;2024-02-04T06:30:12;100976.00;;;13.10
11792;BMP180;5953;52.372;9.918;2024-02-04T06:32:40;100988.00;;;13.10
11792;BMP180;5953;52.372;9.918;2024-02-04T06:35:08;100976.00;;;13.10
11792;BMP180;5953;52.372;9.918;2024-02-04T06:37:36;100977.00;;;12.80
11792;BMP180;5953;52.372;9.918;2024-02-04T06:40:04;100970.00;;;12.80
11792;BMP180;5953;52.372;9.918;2024-02-04T06:42:34;100972.00;;;13.00
11792;BMP180;5953;52.372;9.918;2024-02-04T06:45:02;100968.00;;;12.80
11792;BMP180;5953;52.372;9.918;2024-02-04T06:47:30;100963.00;;;13.00
11792;BMP180;5953;52.372;9.918;2024-02-04T06:49:58;100973.00;;;12.50
11792;BMP180;5953;52.372;9.918;2024-02-04T06:52:26;100975.00;;;12.60
11792;BMP180;5953;52.372;9.918;2024-02-04T06:54:53;100961.00;;;12.70
11792;BMP180;5953;52.372;9.918;2024-02-04T06:57:21;100962.00;;;12.80
11792;BMP180;5953;52.372;9.918;2024-02-04T06:59:50;100970.00;;;12.40
11792;BMP180;5953;52.372;9.918;2024-02-04T07:02:18;100962.00;;;12.40
11792;BMP180;5953;52.372;9.918;2024-02-04T07:04:46;100940.00;;;12.70
11792;BMP180;5953;52.372;9.918;2024-02-04T07:07:16;100951.00;;;12.80
11792;BMP180;5953;52.372;9.918;2024-02-04T07:09:44;100943.00;;;12.70
11792;BMP180;5953;52.372;9.918;2024-02-04T07:12:12;100931.00;;;12.60
11792;BMP180;5953;52.372;9.918;2024-02-04T07:14:39;100946.00;;;12.60
11792;BMP180;5953;52.372;9.918;2024-02-04T07:17:08;100922.00;;;12.70
11792;BMP180;5953;52.372;9.918;2024-02-04T07:19:38;100928.00;;;12.80
11792;BMP180;5953;52.372;9.918;2024-02-04T07:22:06;100931.00;;;12.90
11792;BMP180;5953;52.372;9.918;2024-02-04T07:24:34;100926.00;;;12.90
11792;BMP180;5953;52.372;9.918;2024-02-04T07:27:03;100938.00;;;13.00
11792;BMP180;5953;52.372;9.918;2024-02-04T07:29:31;100931.00;;;12.80
11792;BMP180;5953;52.372;9.918;2024-02-04T07:31:58;100925.00;;;12.80
11792;BMP180;5953;52.372;9.918;2024-02-04T07:34:27;100934.00;;;12.60
11792;BMP180;5953;52.372;9.918;2024-02-04T07:36:55;100931.00;;;12.80
11792;BMP180;5953;52.372;9.918;2024-02-04T07:39:23;100941.00;;;13.00
11792;BMP180;5953;52.372;9.918;2024-02-04T07:41:51;100959.00;;;12.50
11792;BMP180;5953;52.372;9.918;2024-02-04T07:44:20;100953.00;;;12.80
11792;BMP180;5953;52.372;9.918;2024-02-04T07:46:49;100935.00;;;12.70
11792;BMP180;5953;52.372;9.918;2024-02-04T07:49:17;100948.00;;;12.90
11792;BMP180;5953;52.372;9.918;2024-02-04T07:51:46;100915.00;;;12.90
11792;BMP180;5953;52.372;9.918;2024-02-04T07:54:14;100929.00;;;12.80
11792;BMP180;5953;52.372;9.918;2024-02-04T07:56:42;100938.00;;;13.00
11792;BMP180;5953;52.372;9.918;2024-02-04T07:59:10;100929.00;;;12.90
11792;BMP180;5953;52.372;9.918;2024-02-04T08:01:38;100929.00;;;13.00
11792;BMP180;5953;52.372;9.918;2024-02-04T08:04:05;100915.00;;;13.00
11792;BMP180;5953;52.372;9.918;2024-02-04T08:06:35;100926.00;;;12.90
11792;BMP180;5953;52.372;9.918;2024-02-04T08:09:05;100918.00;;;12.90
11792;BMP180;5953;52.372;9.918;2024-02-04T08:11:33;100933.00;;;13.20
11792;BMP180;5953;52.372;9.918;2024-02-04T08:14:01;100922.00;;;12.90
11792;BMP180;5953;52.372;9.918;2024-02-04T08:16:28;100932.00;;;13.20
11792;BMP180;5953;52.372;9.918;2024-02-04T08:18:57;100926.00;;;13.00
11792;BMP180;5953;52.372;9.918;2024-02-04T08:21:25;100926.00;;;13.10
11792;BMP180;5953;52.372;9.918;2024-02-04T08:23:53;100908.00;;;13.10
11792;BMP180;5953;52.372;9.918;2024-02-04T08:26:22;100916.00;;;13.10
11792;BMP180;5953;52.372;9.918;2024-02-04T08:28:50;100915.00;;;13.20
11792;BMP180;5953;52.372;9.918;2024-02-04T08:31:18;100904.00;;;12.90
11792;BMP180;5953;52.372;9.918;2024-02-04T08:33:46;100910.00;;;13.20
11792;BMP180;5953;52.372;9.918;2024-02-04T08:36:14;100911.00;;;13.10
11792;BMP180;5953;52.372;9.918;2024-02-04T08:38:42;100909.00;;;13.10
11792;BMP180;5953;52.372;9.918;2024-02-04T08:41:10;100899.00;;;13.00
11792;BMP180;5953;52.372;9.918;2024-02-04T08:43:39;100918.00;;;13.00
11792;BMP180;5953;52.372;9.918;2024-02-04T08:46:07;100910.00;;;13.20
11792;BMP180;5953;52.372;9.918;2024-02-04T08:48:41;100923.00;;;12.90
11792;BMP180;5953;52.372;9.918;2024-02-04T08:51:10;100919.00;;;13.10
11792;BMP180;5953;52.372;9.918;2024-02-04T08:53:39;100934.00;;;13.10
11792;BMP180;5953;52.372;9.918;2024-02-04T08:56:07;100918.00;;;13.10
11792;BMP180;5953;52.372;9.918;2024-02-04T08:58:35;100928.00;;;13.00
11792;BMP180;5953;52.372;9.918;2024-02-04T09:01:05;100931.00;;;13.20
11792;BMP180;5953;52.372;9.918;2024-02-04T09:03:33;100937.00;;;13.30
11792;BMP180;5953;52.372;9.918;2024-02-04T09:06:01;100940.00;;;13.20
11792;BMP180;5953;52.372;9.918;2024-02-04T09:08:29;100934.00;;;13.30
11792;BMP180;5953;52.372;9.918;2024-02-04T09:10:57;100939.00;;;13.30
11792;BMP180;5953;52.372;9.918;2024-02-04T09:13:24;100937.00;;;13.20
11792;BMP180;5953;52.372;9.918;2024-02-04T09:15:52;100953.00;;;13.00
11792;BMP180;5953;52.372;9.918;2024-02-04T09:18:22;100958.00;;;13.20
11792;BMP180;5953;52.372;9.918;2024-02-04T09:20:50;100946.00;;;13.20
11792;BMP180;5953;52.372;9.918;2024-02-04T09:23:19;100945.00;;;13.10
11792;BMP180;5953;52.372;9.918;2024-02-04T09:25:47;100953.00;;;13.20
11792;BMP180;5953;52.372;9.918;2024-02-04T09:28:15;100947.00;;;12.90
11792;BMP180;5953;52.372;9.918;2024-02-04T09:30:43;100935.00;;;12.80
11792;BMP180;5953;52.372;9.918;2024-02-04T09:33:10;100932.00;;;13.00
11792;BMP180;5953;52.372;9.918;2024-02-04T09:35:40;100933.00;;;12.80
11792;BMP180;5953;52.372;9.918;2024-02-04T09:38:08;100923.00;;;12.90
11792;BMP180;5953;52.372;9.918;2024-02-04T09:40:40;100926.00;;;12.90
11792;BMP180;5953;52.372;9.918;2024-02-04T09:43:08;100920.00;;;13.40
11792;BMP180;5953;52.372;9.918;2024-02-04T09:45:37;100917.00;;;13.20
11792;BMP180;5953;52.372;9.918;2024-02-04T09:48:06;100938.00;;;12.70
11792;BMP180;5953;52.372;9.918;2024-02-04T09:50:36;100935.00;;;13.00
11792;BMP180;5953;52.372;9.918;2024-02-04T09:53:07;100938.00;;;13.20
11792;BMP180;5953;52.372;9.918;2024-02-04T09:55:38;100935.00;;;13.20
11792;BMP180;5953;52.372;9.918;2024-02-04T09:58:07;100933.00;;;13.10
11792;BMP180;5953;52.372;9.918;2024-02-04T10:00:35;100941.00;;;13.10
11792;BMP180;5953;52.372;9.918;2024-02-04T10:03:04;100938.00;;;13.20
11792;BMP180;5953;52.372;9.918;2024-02-04T10:05:32;100935.00;;;13.30
11792;BMP180;5953;52.372;9.918;2024-02-04T10:08:00;100950.00;;;13.10
11792;BMP180;5953;52.372;9.918;2024-02-04T10:10:29;100956.00;;;13.00
11792;BMP180;5953;52.372;9.918;2024-02-04T10:12:59;100962.00;;;13.10
11792;BMP180;5953;52.372;9.918;2024-02-04T10:15:30;100973.00;;;13.10
11792;BMP180;5953;52.372;9.918;2024-02-04T10:17:58;100964.00;;;13.00
11792;BMP180;5953;52.372;9.918;2024-02-04T10:20:28;100957.00;;;13.20
11792;BMP180;5953;52.372;9.918;2024-02-04T10:22:56;100949.00;;;12.70
11792;BMP180;5953;52.372;9.918;2024-02-04T10:25:23;100955.00;;;12.80
11792;BMP180;5953;52.372;9.918;2024-02-04T10:27:53;100954.00;;;12.80
11792;BMP180;5953;52.372;9.918;2024-02-04T10:30:22;100963.00;;;12.80
11792;BMP180;5953;52.372;9.918;2024-02-04T10:32:51;100957.00;;;12.80
11792;BMP180;5953;52.372;9.918;2024-02-04T10:35:20;100943.00;;;12.90
11792;BMP180;5953;52.372;9.918;2024-02-04T10:37:50;100950.00;;;13.00
11792;BMP180;5953;52.372;9.918;2024-02-04T10:40:18;100948.00;;;13.10
11792;BMP180;5953;52.372;9.918;2024-02-04T10:42:46;100940.00;;;12.90
11792;BMP180;5953;52.372;9.918;2024-02-04T10:45:17;100941.00;;;12.90
11792;BMP180;5953;52.372;9.918;2024-02-04T10:47:53;100943.00;;;13.20
11792;BMP180;5953;52.372;9.918;2024-02-04T10:50:24;100917.00;;;13.20
11792;BMP180;5953;52.372;9.918;2024-02-04T10:52:53;100911.00;;;13.20
11792;BMP180;5953;52.372;9.918;2024-02-04T10:55:26;100915.00;;;13.40
11792;BMP180;5953;52.372;9.918;2024-02-04T10:57:55;100916.00;;;13.40
11792;BMP180;5953;52.372;9.918;2024-02-04T11:00:25;100906.00;;;13.20
11792;BMP180;5953;52.372;9.918;2024-02-04T11:02:53;100903.00;;;13.20
11792;BMP180;5953;52.372;9.918;2024-02-04T11:05:23;100907.00;;;13.20
11792;BMP180;5953;52.372;9.918;2024-02-04T11:07:52;100912.00;;;13.30
11792;BMP180;5953;52.372;9.918;2024-02-04T11:10:20;100911.00;;;13.30
11792;BMP180;5953;52.372;9.918;2024-02-04T11:12:49;100908.00;;;13.00
11792;BMP180;5953;52.372;9.918;2024-02-04T11:15:18;100900.00;;;13.00
11792;BMP180;5953;52.372;9.918;2024-02-04T11:21:07;100894.00;;;13.40
11792;BMP180;5953;52.372;9.918;2024-02-04T11:23:42;100888.00;;;13.30
11792;BMP180;5953;52.372;9.918;2024-02-04T11:26:15;100895.00;;;13.40
11792;BMP180;5953;52.372;9.918;2024-02-04T11:28:44;100889.00;;;13.30
11792;BMP180;5953;52.372;9.918;2024-02-04T11:31:15;100897.00;;;13.70
11792;BMP180;5953;52.372;9.918;2024-02-04T11:33:45;100899.00;;;13.70
11792;BMP180;5953;52.372;9.918;2024-02-04T11:36:15;100895.00;;;13.30
11792;BMP180;5953;52.372;9.918;2024-02-04T11:38:48;100906.00;;;13.40
11792;BMP180;5953;52.372;9.918;2024-02-04T11:41:21;100884.00;;;13.30
11792;BMP180;5953;52.372;9.918;2024-02-04T11:43:52;100890.00;;;13.60
11792;BMP180;5953;52.372;9.918;2024-02-04T11:46:27;100890.00;;;13.50
11792;BMP180;5953;52.372;9.918;2024-02-04T11:48:59;100889.00;;;13.40
11792;BMP180;5953;52.372;9.918;2024-02-04T11:51:29;100887.00;;;13.40
11792;BMP180;5953;52.372;9.918;2024-02-04T11:53:57;100877.00;;;13.40
11792;BMP180;5953;52.372;9.918;2024-02-04T11:56:25;100874.00;;;13.70
11792;BMP180;5953;52.372;9.918;2024-02-04T11:58:53;100870.00;;;13.70
11792;BMP180;5953;52.372;9.918;2024-02-04T12:01:21;100867.00;;;13.60
11792;BMP180;5953;52.372;9.918;2024-02-04T12:03:51;100859.00;;;13.80
11792;BMP180;5953;52.372;9.918;2024-02-04T12:06:19;100877.00;;;13.50
11792;BMP180;5953;52.372;9.918;2024-02-04T12:08:49;100875.00;;;13.40
11792;BMP180;5953;52.372;9.918;2024-02-04T12:11:17;100875.00;;;13.60
11792;BMP180;5953;52.372;9.918;2024-02-04T12:13:45;100879.00;;;13.60
11792;BMP180;5953;52.372;9.918;2024-02-04T12:16:13;100874.00;;;13.80
11792;BMP180;5953;52.372;9.918;2024-02-04T12:18:48;100873.00;;;13.90
11792;BMP180;5953;52.372;9.918;2024-02-04T12:21:16;100876.00;;;13.70
11792;BMP180;5953;52.372;9.918;2024-02-04T12:23:44;100869.00;;;13.70
11792;BMP180;5953;52.372;9.918;2024-02-04T12:26:13;100881.00;;;13.60
11792;BMP180;5953;52.372;9.918;2024-02-04T12:28:41;100866.00;;;13.80
11792;BMP180;5953;52.372;9.918;2024-02-04T12:31:16;100852.00;;;14.10
11792;BMP180;5953;52.372;9.918;2024-02-04T12:33:52;100856.00;;;14.10
11792;BMP180;5953;52.372;9.918;2024-02-04T12:36:21;100858.00;;;13.90
11792;BMP180;5953;52.372;9.918;2024-02-04T12:38:55;100855.00;;;13.80
11792;BMP180;5953;52.372;9.918;2024-02-04T12:41:25;100857.00;;;13.90
11792;BMP180;5953;52.372;9.918;2024-02-04T12:43:55;100850.00;;;14.00
11792;BMP180;5953;52.372;9.918;2024-02-04T12:46:23;100838.00;;;13.90
11792;BMP180;5953;52.372;9.918;2024-02-04T12:48:51;100848.00;;;13.70
11792;BMP180;5953;52.372;9.918;2024-02-04T12:51:24;100844.00;;;14.00
11792;BMP180;5953;52.372;9.918;2024-02-04T12:54:04;100848.00;;;13.90
11792;BMP180;5953;52.372;9.918;2024-02-04T12:56:44;100836.00;;;13.60
11792;BMP180;5953;52.372;9.918;2024-02-04T12:59:23;100843.00;;;13.60
11792;BMP180;5953;52.372;9.918;2024-02-04T13:01:53;100847.00;;;13.90
11792;BMP180;5953;52.372;9.918;2024-02-04T13:04:22;100847.00;;;13.90
11792;BMP180;5953;52.372;9.918;2024-02-04T13:06:50;100836.00;;;13.70
11792;BMP180;5953;52.372;9.918;2024-02-04T13:09:18;100834.00;;;13.50
11792;BMP180;5953;52.372;9.918;2024-02-04T13:11:48;100822.00;;;13.40
11792;BMP180;5953;52.372;9.918;2024-02-04T13:14:16;100823.00;;;13.70
11792;BMP180;5953;52.372;9.918;2024-02-04T13:16:44;100827.00;;;13.80
11792;BMP180;5953;52.372;9.918;2024-02-04T13:19:12;100813.00;;;13.90
11792;BMP180;5953;52.372;9.918;2024-02-04T13:21:39;100815.00;;;13.60
11792;BMP180;5953;52.372;9.918;2024-02-04T13:24:07;100816.00;;;13.80
11792;BMP180;5953;52.372;9.918;2024-02-04T13:26:35;100797.00;;;13.90
11792;BMP180;5953;52.372;9.918;2024-02-04T13:29:09;100803.00;;;13.50
11792;BMP180;5953;52.372;9.918;2024-02-04T13:31:37;100815.00;;;13.70
11792;BMP180;5953;52.372;9.918;2024-02-04T13:34:04;100808.00;;;13.60
11792;BMP180;5953;52.372;9.918;2024-02-04T13:36:33;100817.00;;;13.90
11792;BMP180;5953;52.372;9.918;2024-02-04T13:39:00;100815.00;;;13.70
11792;BMP180;5953;52.372;9.918;2024-02-04T13:41:28;100824.00;;;13.80
11792;BMP180;5953;52.372;9.918;2024-02-04T13:43:56;100811.00;;;13.70
11792;BMP180;5953;52.372;9.918;2024-02-04T13:46:26;100811.00;;;13.80
11792;BMP180;5953;52.372;9.918;2024-02-04T13:48:54;100807.00;;;13.70
11792;BMP180;5953;52.372;9.918;2024-02-04T13:51:22;100815.00;;;13.90
11792;BMP180;5953;52.372;9.918;2024-02-04T13:54:06;100800.00;;;13.40
11792;BMP180;5953;52.372;9.918;2024-02-04T13:56:35;100803.00;;;13.80
11792;BMP180;5953;52.372;9.918;2024-02-04T13:59:04;100814.00;;;13.80
11792;BMP180;5953;52.372;9.918;2024-02-04T14:01:34;100796.00;;;13.90
11792;BMP180;5953;52.372;9.918;2024-02-04T14:04:02;100793.00;;;13.90
11792;BMP180;5953;52.372;9.918;2024-02-04T14:06:30;100789.00;;;13.80
11792;BMP180;5953;52.372;9.918;2024-02-04T14:08:58;100793.00;;;13.60
11792;BMP180;5953;52.372;9.918;2024-02-04T14:11:25;100772.00;;;13.70
11792;BMP180;5953;52.372;9.918;2024-02-04T14:13:54;100775.00;;;14.00
11792;BMP180;5953;52.372;9.918;2024-02-04T14:16:21;100774.00;;;13.80
11792;BMP180;5953;52.372;9.918;2024-02-04T14:18:51;100771.00;;;13.70
11792;BMP180;5953;52.372;9.918;2024-02-04T14:21:20;100769.00;;;13.90